Time;durP1;ratioP1;P1;durP2;ratioP2;P2;SDS_P1;SDS_P2;PMS_P1;PMS_P2;Temp;Humidity;BMP_temperature;BMP_pressure;BME280_temperature;BME280_humidity;BME280_pressure;Samples;Min_cycle;Max_cycle;Signal;HPM_P1;HPM_P2
2022/08/27 00:00:40;;;;;;;5.65;4.10;;;18.30;99.90;;;;;;5073350;28;20178;-81
2022/08/27 00:03:06;;;;;;;5.95;3.63;;;18.40;99.90;;;;;;5073433;28;20223;-81
2022/08/27 00:05:32;;;;;;;6.45;3.42;;;;;;;;;;5072637;28;20182;-81
2022/08/27 00:07:58;;;;;;;5.22;2.80;;;;;;;;;;5055334;28;20179;-82
2022/08/27 00:10:26;;;;;;;5.20;3.42;;;18.50;99.90;;;;;;5072859;28;20640;-82
2022/08/27 00:12:54;;;;;;;6.40;3.22;;;18.20;99.90;;;;;;5073216;28;20163;-81
2022/08/27 00:15:20;;;;;;;6.53;3.38;;;18.50;99.90;;;;;;5072847;28;20171;-82
2022/08/27 00:17:46;;;;;;;5.25;3.10;;;;;;;;;;5055146;28;20171;-82
2022/08/27 00:20:14;;;;;;;3.60;2.67;;;18.60;99.90;;;;;;5073151;28;20181;-81
2022/08/27 00:22:40;;;;;;;4.90;3.35;;;18.10;99.90;;;;;;5072850;28;20181;-82
2022/08/27 00:25:06;;;;;;;4.10;2.83;;;18.20;99.90;;;;;;5073086;28;20180;-82
2022/08/27 00:27:32;;;;;;;5.38;2.95;;;;;;;;;;5072453;28;20181;-82
2022/08/27 00:29:58;;;;;;;4.80;2.88;;;18.00;99.90;;;;;;5072905;28;20230;-82
2022/08/27 00:32:24;;;;;;;7.10;3.40;;;;;;;;;;5072773;28;20179;-82
2022/08/27 00:34:51;;;;;;;4.50;2.88;;;;;;;;;;5072809;28;20215;-82
2022/08/27 00:37:18;;;;;;;6.35;3.63;;;;;;;;;;5075349;28;20650;-82
2022/08/27 00:39:44;;;;;;;3.75;3.00;;;;;;;;;;5058805;28;20238;-82
2022/08/27 00:42:10;;;;;;;3.97;2.97;;;18.30;99.90;;;;;;5059132;28;20187;-82
2022/08/27 00:44:37;;;;;;;7.68;3.85;;;;;;;;;;5076646;28;20179;-82
2022/08/27 00:47:09;;;;;;;3.88;2.85;;;18.20;99.90;;;;;;5059117;28;20222;-82
2022/08/27 00:49:51;;;;;;;4.35;2.97;;;18.40;99.90;;;;;;5076967;28;20156;-82
2022/08/27 00:52:28;;;;;;;5.93;3.58;;;18.40;99.90;;;;;;5076749;28;20167;-82
2022/08/27 00:55:12;;;;;;;4.10;2.70;;;17.90;99.90;;;;;;5076972;28;20277;-81
2022/08/27 00:57:40;;;;;;;6.03;3.65;;;18.10;99.90;;;;;;5058640;28;20577;-82
2022/08/27 01:00:13;;;;;;;5.32;3.40;;;18.60;99.90;;;;;;5076761;28;20170;-81
2022/08/27 01:02:39;;;;;;;5.95;3.50;;;18.50;99.90;;;;;;5076330;28;20648;-81
2022/08/27 01:05:10;;;;;;;3.85;2.70;;;18.40;99.90;;;;;;5076567;28;20179;-82
2022/08/27 01:07:40;;;;;;;5.65;3.03;;;18.00;99.90;;;;;;5076492;28;20178;-82
2022/08/27 01:10:10;;;;;;;4.65;3.22;;;18.50;99.90;;;;;;5058479;28;20570;-82
2022/08/27 01:12:37;;;;;;;5.20;3.60;;;18.10;99.90;;;;;;5076057;28;20229;-82
2022/08/27 01:15:15;;;;;;;3.53;2.67;;;18.00;99.90;;;;;;5076195;28;20193;-82
2022/08/27 01:17:43;;;;;;;7.90;3.42;;;18.10;99.90;;;;;;5076444;28;20216;-82
2022/08/27 01:20:15;;;;;;;6.93;3.05;;;18.10;99.90;;;;;;5076107;28;20189;-82
2022/08/27 01:23:15;;;;;;;5.78;3.10;;;17.90;99.90;;;;;;5058269;28;20179;-82
2022/08/27 01:25:42;;;;;;;4.07;2.63;;;18.00;99.90;;;;;;5076128;28;20258;-82
2022/08/27 01:28:09;;;;;;;5.80;3.55;;;18.20;99.90;;;;;;5076269;28;20171;-81
2022/08/27 01:30:35;;;;;;;4.80;3.20;;;;;;;;;;5075908;28;20210;-81
2022/08/27 01:33:08;;;;;;;8.10;3.20;;;17.60;99.90;;;;;;5076101;28;20203;-81
2022/08/27 01:35:34;;;;;;;5.20;3.10;;;17.90;99.90;;;;;;5075585;28;20191;-82
2022/08/27 01:38:00;;;;;;;7.93;3.53;;;17.90;99.90;;;;;;5058432;28;20211;-81
2022/08/27 01:40:26;;;;;;;5.07;2.78;;;18.10;99.90;;;;;;5075819;28;20172;-81
2022/08/27 01:42:55;;;;;;;10.65;3.13;;;17.80;99.90;;;;;;5057708;28;20586;-81
2022/08/27 01:45:28;;;;;;;4.72;2.80;;;17.60;99.90;;;;;;5076182;28;20223;-81
2022/08/27 01:47:54;;;;;;;4.28;3.15;;;17.60;99.90;;;;;;5075000;28;20190;-82
2022/08/27 01:50:23;;;;;;;5.82;3.60;;;18.10;99.90;;;;;;5058065;28;20183;-81
2022/08/27 01:52:49;;;;;;;5.32;3.10;;;17.80;99.90;;;;;;5075830;28;20206;-82
2022/08/27 01:55:18;;;;;;;7.32;4.28;;;17.40;99.90;;;;;;5075798;28;20660;-82
2022/08/27 01:57:44;;;;;;;3.92;3.25;;;17.90;99.90;;;;;;5075428;28;20203;-82
2022/08/27 02:00:18;;;;;;;6.68;3.72;;;17.50;99.90;;;;;;5057929;28;20207;-82
2022/08/27 02:02:44;;;;;;;4.32;3.28;;;17.70;99.90;;;;;;5075499;28;20250;-82
2022/08/27 02:05:11;;;;;;;5.15;3.33;;;17.50;99.90;;;;;;5075314;28;20258;-82
2022/08/27 02:07:37;;;;;;;6.20;3.38;;;17.90;99.90;;;;;;5075255;28;20274;-82
2022/08/27 02:10:06;;;;;;;5.97;3.47;;;17.80;99.90;;;;;;5057500;28;20331;-82
2022/08/27 02:12:32;;;;;;;6.22;3.83;;;17.50;99.90;;;;;;5057115;28;20225;-83
2022/08/27 02:14:57;;;;;;;4.10;3.40;;;17.00;99.90;;;;;;5057489;28;20597;-81
2022/08/27 02:17:23;;;;;;;5.97;3.38;;;17.10;99.90;;;;;;5057601;28;20191;-81
2022/08/27 02:19:49;;;;;;;5.63;3.67;;;;;;;;;;5075209;28;20183;-82
2022/08/27 02:22:15;;;;;;;5.65;3.10;;;;;;;;;;5075221;28;20183;-81
2022/08/27 02:24:41;;;;;;;5.15;3.08;;;17.30;99.90;;;;;;5074617;28;20179;-82
2022/08/27 02:27:07;;;;;;;5.65;3.35;;;;;;;;;;5057396;28;20187;-82
2022/08/27 02:29:33;;;;;;;7.35;3.80;;;;;;;;;;5074801;28;20175;-85
2022/08/27 02:32:00;;;;;;;5.40;4.18;;;;;;;;;;5057369;28;20304;-82
2022/08/27 02:34:27;;;;;;;5.32;3.78;;;17.50;99.90;;;;;;5057015;28;20765;-81
2022/08/27 02:36:53;;;;;;;5.75;2.88;;;17.10;99.90;;;;;;5074813;28;21016;-82
2022/08/27 02:39:19;;;;;;;6.03;4.00;;;16.90;99.90;;;;;;5075317;28;20223;-81
2022/08/27 02:41:46;;;;;;;10.02;3.20;;;;;;;;;;5075011;28;20180;-82
2022/08/27 02:44:11;;;;;;;10.95;3.15;;;16.90;99.90;;;;;;5075307;28;20183;-82
2022/08/27 02:46:38;;;;;;;9.30;3.38;;;16.90;99.90;;;;;;5055095;28;20222;-84
2022/08/27 02:49:04;;;;;;;3.08;2.78;;;17.10;99.90;;;;;;5097537;28;20171;-82
2022/08/27 02:51:30;;;;;;;5.72;3.20;;;;;;;;;;5096697;28;20178;-81
2022/08/27 02:53:55;;;;;;;6.43;4.05;;;17.10;99.90;;;;;;5076753;28;20550;-81
2022/08/27 02:56:21;;;;;;;8.65;4.00;;;16.80;99.90;;;;;;5091600;28;20186;-82
2022/08/27 02:58:47;;;;;;;5.03;2.97;;;;;;;;;;5059995;28;20183;-82
2022/08/27 03:01:14;;;;;;;8.52;3.60;;;16.80;99.90;;;;;;5074077;28;20194;-81
2022/08/27 03:03:40;;;;;;;5.80;3.58;;;17.10;99.90;;;;;;5073915;28;20663;-81
2022/08/27 03:06:06;;;;;;;4.00;2.95;;;17.40;99.90;;;;;;5074293;28;20173;-82
2022/08/27 03:08:32;;;;;;;5.22;3.30;;;;;;;;;;5056341;28;20262;-82
2022/08/27 03:10:58;;;;;;;4.43;3.40;;;16.70;99.90;;;;;;5056014;28;20175;-81
2022/08/27 03:13:24;;;;;;;5.53;2.97;;;16.70;99.90;;;;;;5056303;28;20710;-81
2022/08/27 03:15:50;;;;;;;6.10;3.13;;;16.90;99.90;;;;;;5073859;28;20208;-81
2022/08/27 03:18:20;;;;;;;10.55;4.10;;;;;;;;;;5073810;28;20180;-81
2022/08/27 03:20:47;;;;;;;5.35;3.10;;;17.10;99.90;;;;;;5073735;28;20172;-81
2022/08/27 03:23:14;;;;;;;5.65;3.13;;;17.10;99.90;;;;;;5073779;28;20579;-82
2022/08/27 03:25:44;;;;;;;3.22;2.67;;;16.50;99.90;;;;;;5073743;28;20171;-83
2022/08/27 03:28:13;;;;;;;3.25;2.33;;;16.80;99.90;;;;;;5073974;28;20171;-82
2022/08/27 03:30:39;;;;;;;4.53;2.83;;;17.00;99.90;;;;;;5073828;28;20171;-81
2022/08/27 03:33:04;;;;;;;5.68;3.85;;;16.50;99.90;;;;;;5073194;28;20214;-82
2022/08/27 03:35:30;;;;;;;6.30;3.45;;;;;;;;;;5056359;28;20171;-82
2022/08/27 03:37:56;;;;;;;3.88;2.78;;;16.80;99.90;;;;;;5073439;28;20183;-82
2022/08/27 03:40:22;;;;;;;6.90;4.93;;;;;;;;;;5039142;28;20562;-82
2022/08/27 03:42:49;;;;;;;5.60;3.45;;;;;;;;;;5073630;28;20211;-83
2022/08/27 03:45:15;;;;;;;13.57;3.83;;;16.70;99.90;;;;;;5073510;28;20227;-82
2022/08/27 03:47:41;;;;;;;4.45;3.47;;;16.80;99.90;;;;;;5073604;28;20647;-82
2022/08/27 03:50:07;;;;;;;6.07;4.28;;;16.80;99.90;;;;;;5039128;28;20525;-82
2022/08/27 03:52:34;;;;;;;5.07;3.50;;;16.80;99.90;;;;;;5055452;28;20266;-82
2022/08/27 03:55:02;;;;;;;4.75;3.10;;;16.60;99.90;;;;;;5073127;28;20214;-83
2022/08/27 03:57:27;;;;;;;5.13;3.30;;;16.50;99.90;;;;;;5055499;28;20240;-82
2022/08/27 03:59:54;;;;;;;12.10;3.80;;;;;;;;;;5059271;28;20637;-83
2022/08/27 04:02:19;;;;;;;4.68;3.28;;;16.60;99.90;;;;;;5063378;28;20175;-82
2022/08/27 04:04:46;;;;;;;6.55;3.40;;;;;;;;;;5044927;28;20674;-83
2022/08/27 04:07:11;;;;;;;6.95;3.65;;;16.90;99.90;;;;;;5061973;28;20660;-82
2022/08/27 04:09:37;;;;;;;6.32;3.50;;;;;;;;;;5066169;28;20215;-82
2022/08/27 04:12:03;;;;;;;5.55;4.10;;;17.00;99.90;;;;;;5055627;28;20581;-82
2022/08/27 04:14:29;;;;;;;4.95;3.35;;;17.20;99.90;;;;;;5064476;28;20211;-82
2022/08/27 04:16:56;;;;;;;3.95;3.03;;;16.90;99.90;;;;;;5061418;28;20239;-82
2022/08/27 04:19:21;;;;;;;5.47;3.10;;;17.20;99.90;;;;;;5063155;28;20538;-83
2022/08/27 04:21:47;;;;;;;3.88;3.20;;;16.90;99.90;;;;;;5068635;28;20171;-82
2022/08/27 04:24:14;;;;;;;5.13;2.92;;;;;;;;;;5062199;28;20187;-82
2022/08/27 04:26:41;;;;;;;4.43;2.90;;;17.30;99.90;;;;;;5061954;28;20202;-81
2022/08/27 04:29:07;;;;;;;3.33;3.03;;;16.80;99.90;;;;;;5061932;28;20175;-82
2022/08/27 04:31:34;;;;;;;4.00;2.75;;;;;;;;;;5071648;28;20182;-83
2022/08/27 04:33:59;;;;;;;4.95;3.28;;;16.80;99.90;;;;;;5045195;28;20218;-81
2022/08/27 04:36:25;;;;;;;3.33;2.67;;;17.10;99.90;;;;;;5071376;28;20171;-82
2022/08/27 04:38:51;;;;;;;5.07;3.95;;;;;;;;;;5070869;28;20640;-82
2022/08/27 04:41:21;;;;;;;3.80;3.00;;;;;;;;;;5068796;28;20201;-81
2022/08/27 04:43:55;;;;;;;6.82;3.60;;;17.30;99.90;;;;;;5047906;28;20626;-83
2022/08/27 04:46:34;;;;;;;6.25;3.63;;;17.30;99.90;;;;;;5069487;28;20703;-82
2022/08/27 04:49:02;;;;;;;6.75;3.90;;;17.40;99.90;;;;;;5055720;28;20183;-82
2022/08/27 04:51:28;;;;;;;5.07;3.33;;;17.30;99.90;;;;;;5066254;28;20320;-82
2022/08/27 04:53:55;;;;;;;7.55;3.40;;;17.40;99.90;;;;;;5072740;28;20210;-82
2022/08/27 04:56:22;;;;;;;7.82;3.38;;;17.60;99.90;;;;;;5054989;28;20272;-81
2022/08/27 04:58:49;;;;;;;4.60;3.25;;;17.80;99.90;;;;;;5073085;28;20183;-81
2022/08/27 05:01:17;;;;;;;7.25;3.63;;;17.50;99.90;;;;;;5054578;28;20175;-82
2022/08/27 05:03:43;;;;;;;6.15;4.05;;;18.30;99.90;;;;;;5055048;28;20198;-81
2022/08/27 05:06:09;;;;;;;6.00;3.67;;;17.80;99.90;;;;;;5072388;28;20187;-82
2022/08/27 05:08:34;;;;;;;4.70;3.42;;;18.20;99.90;;;;;;5054856;28;20183;-80
2022/08/27 05:11:01;;;;;;;5.00;3.47;;;;;;;;;;5054691;28;20266;-82
2022/08/27 05:13:27;;;;;;;5.68;3.40;;;18.10;99.90;;;;;;5072685;28;20211;-82
2022/08/27 05:16:02;;;;;;;6.68;3.83;;;17.80;99.90;;;;;;5072508;28;20182;-82
2022/08/27 05:18:28;;;;;;;5.72;3.63;;;18.40;99.90;;;;;;5054620;28;20255;-81
2022/08/27 05:20:54;;;;;;;6.55;3.67;;;18.20;99.90;;;;;;5072486;28;20179;-81
2022/08/27 05:23:20;;;;;;;8.88;4.40;;;18.50;99.90;;;;;;5075125;28;20179;-82
2022/08/27 05:25:48;;;;;;;4.47;3.38;;;18.20;99.90;;;;;;5076329;28;20178;-81
2022/08/27 05:28:16;;;;;;;5.43;3.08;;;18.30;99.90;;;;;;5075977;28;20209;-82
2022/08/27 05:30:45;;;;;;;6.30;3.65;;;18.10;99.90;;;;;;5076540;28;20179;-82
2022/08/27 05:33:13;;;;;;;6.10;3.53;;;18.30;99.90;;;;;;5075693;28;20668;-83
2022/08/27 05:35:44;;;;;;;6.75;3.78;;;18.10;99.90;;;;;;5060502;28;20216;-85
2022/08/27 05:38:11;;;;;;;8.27;4.55;;;18.30;99.90;;;;;;5080028;28;20179;-83
2022/08/27 05:40:37;;;;;;;7.95;4.00;;;;;;;;;;5075779;28;20656;-83
2022/08/27 05:43:04;;;;;;;8.68;4.32;;;18.50;99.90;;;;;;5057582;28;20317;-83
2022/08/27 05:45:30;;;;;;;7.70;3.25;;;;;;;;;;5057761;28;20334;-83
2022/08/27 05:47:57;;;;;;;7.82;4.40;;;19.20;99.90;;;;;;5057288;28;20652;-84
2022/08/27 05:50:24;;;;;;;6.32;3.33;;;19.20;99.90;;;;;;5057875;28;20663;-83
2022/08/27 05:52:50;;;;;;;5.47;3.45;;;;;;;;;;5075984;28;20210;-83
2022/08/27 05:55:16;;;;;;;6.18;4.40;;;19.00;99.90;;;;;;5057357;28;20211;-82
2022/08/27 05:57:42;;;;;;;5.20;3.63;;;19.90;99.90;;;;;;5057518;28;20189;-82
2022/08/27 06:02:53;;;;;;;7.53;3.90;;;;;;;;;;5075917;28;20194;-83
2022/08/27 06:05:18;;;;;;;6.72;3.55;;;20.20;99.90;;;;;;5075047;28;20167;-84
2022/08/27 06:07:44;;;;;;;4.28;2.97;;;;;;;;;;5075117;28;20186;-84
2022/08/27 06:10:11;;;;;;;4.35;2.78;;;20.40;99.90;;;;;;5074621;28;20225;-84
2022/08/27 06:12:37;;;;;;;7.72;4.43;;;;;;;;;;5075169;28;20259;-84
2022/08/27 06:15:03;;;;;;;6.28;4.07;;;19.80;99.90;;;;;;5074035;28;20293;-83
2022/08/27 06:17:28;;;;;;;5.97;3.67;;;20.60;99.90;;;;;;5074616;28;20179;-84
2022/08/27 06:19:54;;;;;;;5.40;3.65;;;19.80;99.90;;;;;;5035473;28;20195;-85
2022/08/27 06:22:20;;;;;;;5.90;3.60;;;;;;;;;;5073040;28;20195;-88
2022/08/27 06:24:46;;;;;;;7.35;4.03;;;;;;;;;;5073708;28;20223;-86
2022/08/27 06:27:15;;;;;;;8.07;5.03;;;20.70;99.90;;;;;;5074752;28;20180;-85
2022/08/27 06:29:41;;;;;;;5.38;3.92;;;;;;;;;;5073678;28;20183;-83
2022/08/27 06:32:08;;;;;;;4.63;3.75;;;21.20;99.90;;;;;;5068346;28;20183;-84
2022/08/27 06:34:35;;;;;;;5.68;3.03;;;21.20;99.90;;;;;;5054544;28;20235;-85
2022/08/27 06:37:01;;;;;;;6.28;3.90;;;;;;;;;;5055225;28;20175;-85
2022/08/27 06:39:27;;;;;;;9.00;4.05;;;;;;;;;;5073620;28;20298;-84
2022/08/27 06:41:53;;;;;;;7.07;4.18;;;20.90;99.90;;;;;;5055544;28;20241;-83
2022/08/27 06:44:19;;;;;;;6.25;3.70;;;;;;;;;;5038787;28;20191;-85
2022/08/27 06:46:45;;;;;;;4.97;3.28;;;21.70;99.90;;;;;;5073884;28;20222;-85
2022/08/27 06:49:12;;;;;;;5.65;3.75;;;21.50;99.90;;;;;;5070429;28;20179;-83
2022/08/27 06:51:39;;;;;;;6.82;4.05;;;21.50;99.90;;;;;;5069480;28;20236;-84
2022/08/27 06:54:10;;;;;;;13.45;4.50;;;21.60;99.90;;;;;;5032286;28;20207;-85
2022/08/27 06:56:36;;;;;;;8.23;4.03;;;21.30;99.90;;;;;;5055217;28;20174;-85
2022/08/27 06:59:06;;;;;;;6.20;3.90;;;21.80;99.90;;;;;;5055559;28;20317;-87
2022/08/27 07:01:35;;;;;;;8.18;3.72;;;21.70;99.90;;;;;;5054476;28;20282;-86
2022/08/27 07:04:04;;;;;;;5.90;3.50;;;22.10;99.90;;;;;;5072330;28;20186;-85
2022/08/27 07:06:31;;;;;;;5.55;3.63;;;22.10;99.90;;;;;;5065784;28;20647;-86
2022/08/27 07:08:58;;;;;;;7.60;4.68;;;22.20;99.90;;;;;;5063932;28;20233;-85
2022/08/27 07:11:24;;;;;;;7.05;3.75;;;;;;;;;;5071263;28;20197;-86
2022/08/27 07:13:50;;;;;;;9.15;3.92;;;;;;;;;;5067078;28;20210;-85
2022/08/27 07:16:19;;;;;;;6.30;4.00;;;22.40;99.90;;;;;;5067663;28;20183;-85
2022/08/27 07:18:45;;;;;;;8.90;4.70;;;;;;;;;;5054881;28;20286;-85
2022/08/27 07:21:11;;;;;;;8.45;4.65;;;22.90;99.90;;;;;;5072422;28;20192;-85
2022/08/27 07:23:38;;;;;;;8.45;4.68;;;22.30;99.90;;;;;;5057349;28;20689;-85
2022/08/27 07:26:08;;;;;;;5.75;3.70;;;22.60;99.90;;;;;;5078520;28;20183;-89
2022/08/27 07:28:35;;;;;;;5.45;3.72;;;;;;;;;;5076960;28;20183;-86
2022/08/27 07:31:00;;;;;;;6.35;4.07;;;22.30;99.90;;;;;;5054274;28;20199;-87
2022/08/27 07:33:26;;;;;;;9.48;4.10;;;;;;;;;;5051972;28;20695;-87
2022/08/27 07:35:52;;;;;;;6.90;3.78;;;;;;;;;;5070078;28;20179;-88
2022/08/27 07:38:18;;;;;;;5.15;3.47;;;23.60;99.90;;;;;;5053815;28;20286;-87
2022/08/27 07:40:44;;;;;;;8.85;3.92;;;23.40;99.90;;;;;;5050393;28;20269;-88
2022/08/27 07:45:55;;;;;;;7.78;4.18;;;23.60;99.90;;;;;;5062774;28;20249;-89
2022/08/27 07:48:25;;;;;;;5.97;3.85;;;23.40;99.90;;;;;;5045949;28;20183;-90
2022/08/27 07:50:52;;;;;;;9.05;4.40;;;23.30;99.90;;;;;;5066497;28;20225;-89
2022/08/27 07:53:18;;;;;;;9.73;4.90;;;;;;;;;;5044908;28;20557;-88
2022/08/27 07:55:44;;;;;;;5.20;3.63;;;;;;;;;;5059671;28;20186;-89
2022/08/27 07:58:10;;;;;;;7.35;4.93;;;23.80;99.90;;;;;;5063986;28;20986;-89
2022/08/27 08:00:36;;;;;;;8.18;4.15;;;;;;;;;;5046967;28;20180;-89
2022/08/27 08:03:02;;;;;;;6.90;4.05;;;24.40;99.90;;;;;;5065104;28;20554;-88
2022/08/27 08:05:28;;;;;;;5.28;3.85;;;;;;;;;;5067903;28;20524;-88
2022/08/27 08:07:55;;;;;;;15.10;6.07;;;;;;;;;;5060906;28;20536;-88
2022/08/27 08:10:22;;;;;;;9.77;4.60;;;24.30;99.90;;;;;;5045265;28;20187;-88
2022/08/27 08:12:48;;;;;;;6.57;3.92;;;24.90;99.90;;;;;;5061003;28;20283;-89
2022/08/27 08:15:16;;;;;;;6.63;3.75;;;24.70;99.90;;;;;;5050675;28;20228;-89
2022/08/27 08:17:42;;;;;;;8.52;4.10;;;25.10;99.90;;;;;;5067718;28;20209;-88
2022/08/27 08:20:11;;;;;;;4.95;3.50;;;24.70;99.90;;;;;;5069960;28;20264;-87
2022/08/27 08:22:37;;;;;;;7.55;4.03;;;;;;;;;;5043202;28;20211;-89
2022/08/27 08:25:03;;;;;;;6.57;3.67;;;24.80;99.90;;;;;;5071725;28;20190;-89
2022/08/27 08:27:31;;;;;;;6.63;3.80;;;;;;;;;;5068849;28;20190;-89
2022/08/27 08:29:58;;;;;;;6.03;3.33;;;25.00;99.90;;;;;;5053870;28;20172;-89
2022/08/27 08:32:24;;;;;;;7.03;4.10;;;;;;;;;;5034974;28;20191;-86
2022/08/27 08:34:50;;;;;;;8.70;4.53;;;;;;;;;;5060551;28;20340;-88
2022/08/27 08:37:16;;;;;;;8.10;4.63;;;;;;;;;;5064696;28;20281;-89
2022/08/27 08:39:43;;;;;;;6.70;3.50;;;;;;;;;;5048919;28;20581;-89
2022/08/27 08:42:27;;;;;;;11.52;3.92;;;25.70;99.90;;;;;;5044570;28;20586;-88
2022/08/27 08:44:54;;;;;;;8.23;4.10;;;25.80;99.90;;;;;;5071249;28;20191;-88
2022/08/27 08:47:26;;;;;;;6.60;3.63;;;25.70;99.90;;;;;;5063723;28;20673;-88
2022/08/27 08:50:07;;;;;;;8.15;4.25;;;25.40;99.90;;;;;;5045189;28;20191;-88
2022/08/27 08:53:00;;;;;;;6.45;3.75;;;25.80;99.90;;;;;;5064349;28;20190;-91
2022/08/27 08:55:40;;;;;;;14.68;4.35;;;26.30;99.90;;;;;;5052072;28;20191;-91
2022/08/27 08:58:27;;;;;;;6.13;3.58;;;26.30;99.90;;;;;;5059353;28;20187;-90
2022/08/27 09:00:57;;;;;;;8.38;4.43;;;26.50;99.90;;;;;;5049012;28;20278;-90
2022/08/27 09:03:24;;;;;;;6.72;4.38;;;;;;;;;;5064386;28;20183;-90
2022/08/27 09:05:57;;;;;;;9.43;3.40;;;26.60;99.90;;;;;;5072382;28;20191;-89
2022/08/27 09:08:30;;;;;;;6.95;4.15;;;26.80;99.90;;;;;;5104051;28;20310;-90
2022/08/27 09:11:26;;;;;;;4.57;3.10;;;27.60;99.90;;;;;;5072220;28;20203;-89
2022/08/27 09:13:56;;;;;;;5.53;3.90;;;27.10;98.10;;;;;;5081228;28;20219;-90
2022/08/27 09:16:22;;;;;;;7.55;2.95;;;;;;;;;;5070638;28;20198;-89
2022/08/27 09:18:48;;;;;;;4.05;2.70;;;;;;;;;;5087894;28;20191;-90
2022/08/27 09:21:42;;;;;;;8.18;3.63;;;27.70;99.90;;;;;;5088048;28;20187;-91
2022/08/27 09:24:34;;;;;;;7.15;3.05;;;27.40;94.50;;;;;;5078651;28;20203;-88
2022/08/27 09:27:00;;;;;;;5.93;3.13;;;;;;;;;;5066802;28;20195;-92
2022/08/27 09:29:27;;;;;;;11.90;3.22;;;27.60;93.10;;;;;;5078753;28;20273;-91
2022/08/27 09:32:06;;;;;;;5.95;2.78;;;27.60;99.90;;;;;;5072507;28;20180;-93
2022/08/27 09:34:41;;;;;;;5.18;2.83;;;27.90;94.30;;;;;;5068892;28;20234;-91
2022/08/27 09:37:14;;;;;;;5.05;3.13;;;28.00;93.50;;;;;;5067609;28;20175;-90
2022/08/27 09:40:22;;;;;;;6.57;3.22;;;28.00;99.90;;;;;;5076186;28;20183;-90
2022/08/27 09:42:52;;;;;;;3.72;2.58;;;28.30;92.40;;;;;;4994334;28;20237;-89
2022/08/27 09:45:27;;;;;;;6.60;3.45;;;28.00;99.90;;;;;;5042632;28;20261;-90
2022/08/27 09:48:01;;;;;;;6.45;3.60;;;28.50;91.30;;;;;;5076154;28;20183;-89
2022/08/27 09:50:40;;;;;;;8.02;2.88;;;28.70;89.20;;;;;;5071991;28;20278;-91
2022/08/27 09:53:22;;;;;;;12.38;5.50;;;28.80;89.10;;;;;;5070871;28;20194;-89
2022/08/27 09:55:54;;;;;;;3.90;2.80;;;28.90;83.30;;;;;;5083260;28;20171;-87
2022/08/27 09:58:27;;;;;;;4.47;2.67;;;28.90;85.40;;;;;;5097782;28;20179;-89
2022/08/27 10:01:20;;;;;;;3.95;2.53;;;28.70;96.90;;;;;;5088217;28;20163;-87
2022/08/27 10:03:47;;;;;;;23.67;3.40;;;29.10;82.60;;;;;;5099045;28;20235;-90
2022/08/27 10:06:13;;;;;;;13.15;3.03;;;;;;;;;;5063376;28;20261;-87
2022/08/27 10:08:39;;;;;;;4.05;2.30;;;;;;;;;;5073179;28;20266;-89
2022/08/27 10:11:22;;;;;;;4.43;2.78;;;29.40;94.20;;;;;;5050453;28;20274;-89
2022/08/27 10:14:13;;;;;;;5.90;2.45;;;29.60;76.90;;;;;;5059759;28;20238;-91
2022/08/27 10:16:49;;;;;;;3.55;2.20;;;29.10;92.80;;;;;;5046386;28;20190;-89
2022/08/27 10:19:54;;;;;;;4.00;2.40;;;29.70;71.30;;;;;;5046852;28;20198;-88
2022/08/27 10:22:20;;;;;;;6.38;2.53;;;;;;;;;;5043749;28;20237;-90
2022/08/27 10:24:59;;;;;;;4.05;2.75;;;29.20;90.20;;;;;;5061438;28;20192;-89
2022/08/27 10:27:43;;;;;;;3.00;1.90;;;30.00;69.00;;;;;;5063288;28;21686;-89
2022/08/27 10:30:20;;;;;;;5.22;2.58;;;30.60;91.20;;;;;;5055129;28;20228;-91
2022/08/27 10:33:36;;;;;;;4.07;2.45;;;29.60;85.50;;;;;;5059452;28;20652;-90
2022/08/27 10:36:19;;;;;;;2.63;1.80;;;30.70;90.40;;;;;;5000778;28;20202;-91
2022/08/27 10:39:17;;;;;;;2.60;1.75;;;30.40;60.10;;;;;;5056772;28;20191;-89
2022/08/27 10:42:09;;;;;;;3.53;1.85;;;30.60;61.30;;;;;;5037962;28;20722;-91
2022/08/27 10:44:45;;;;;;;2.90;1.83;;;30.70;59.90;;;;;;5060505;28;20183;-91
2022/08/27 10:47:40;;;;;;;3.88;2.22;;;30.70;60.60;;;;;;5056659;28;20232;-90
2022/08/27 10:50:16;;;;;;;2.83;1.90;;;30.80;59.80;;;;;;5039497;28;20229;-92
2022/08/27 10:53:23;;;;;;;2.95;2.10;;;31.00;84.10;;;;;;5076388;28;20644;-91
2022/08/27 10:56:00;;;;;;;4.15;1.95;;;30.90;59.90;;;;;;5040765;28;20230;-89
2022/08/27 10:58:49;;;;;;;3.85;1.58;;;31.00;56.70;;;;;;5038248;28;20194;-89
2022/08/27 11:01:25;;;;;;;3.25;1.92;;;31.10;55.70;;;;;;5042173;28;20190;-90
2022/08/27 11:03:51;;;;;;;1.35;1.20;;;;;;;;;;5060446;28;20268;-91
2022/08/27 11:06:39;;;;;;;3.50;1.63;;;31.10;54.00;;;;;;5040568;28;20238;-90
2022/08/27 11:09:05;;;;;;;4.43;1.67;;;;;;;;;;5050910;28;20187;-90
2022/08/27 11:11:32;;;;;;;3.85;2.13;;;;;;;;;;5054711;28;20191;-89
2022/08/27 11:13:59;;;;;;;2.38;1.80;;;30.90;53.90;;;;;;5072752;28;20253;-89
2022/08/27 11:16:46;;;;;;;4.70;2.40;;;30.80;55.90;;;;;;5055368;28;20214;-90
2022/08/27 11:19:41;;;;;;;7.13;1.77;;;31.00;55.00;;;;;;5071747;28;20211;-88
2022/08/27 11:22:15;;;;;;;2.03;1.55;;;31.20;54.00;;;;;;5045372;28;20277;-91
2022/08/27 11:24:55;;;;;;;3.95;1.83;;;30.60;77.60;;;;;;5088531;28;20548;-90
2022/08/27 11:27:25;;;;;;;2.97;1.98;;;31.40;54.30;;;;;;5052165;28;20187;-90
2022/08/27 11:29:51;;;;;;;1.67;1.40;;;;;;;;;;5073670;28;20175;-90
2022/08/27 11:32:17;;;;;;;3.35;1.80;;;;;;;;;;5071390;28;20183;-89
2022/08/27 11:34:50;;;;;;;3.90;1.65;;;31.60;50.90;;;;;;5071599;28;20534;-89
2022/08/27 11:37:30;;;;;;;5.65;1.42;;;31.30;74.40;;;;;;5071860;28;20300;-88
2022/08/27 11:40:17;;;;;;;2.65;1.23;;;30.90;75.20;;;;;;5071235;28;20655;-90
2022/08/27 11:43:00;;;;;;;1.67;1.10;;;31.70;63.40;;;;;;5060047;28;20183;-87
2022/08/27 11:45:37;;;;;;;2.70;1.40;;;31.30;51.80;;;;;;5064660;28;20230;-90
2022/08/27 11:48:25;;;;;;;1.48;1.25;;;31.40;49.20;;;;;;5052620;28;20266;-89
2022/08/27 11:51:13;;;;;;;4.40;1.10;;;32.20;73.90;;;;;;4998646;28;20192;-90
2022/08/27 11:53:55;;;;;;;3.53;1.30;;;31.30;50.50;;;;;;5051698;28;20207;-88
2022/08/27 11:56:37;;;;;;;6.72;1.45;;;31.30;72.70;;;;;;5046804;28;20184;-90
2022/08/27 11:59:23;;;;;;;3.65;2.00;;;31.30;71.60;;;;;;5050290;28;20175;-90
2022/08/27 12:01:51;;;;;;;2.17;1.20;;;35.50;50.60;;;;;;5055695;28;20727;-93
2022/08/27 12:04:29;;;;;;;2.17;0.93;;;32.00;56.50;;;;;;5077608;28;20269;-94
2022/08/27 12:07:12;;;;;;;6.28;2.15;;;31.30;47.50;;;;;;5077164;28;20183;-94
2022/08/27 12:09:59;;;;;;;2.75;1.35;;;31.90;70.40;;;;;;5077066;28;20183;-94
2022/08/27 12:12:51;;;;;;;1.65;1.08;;;31.40;46.90;;;;;;5055621;28;20256;-91
2022/08/27 12:15:26;;;;;;;2.13;1.63;;;31.40;45.10;;;;;;5055593;28;20199;-93
2022/08/27 12:18:35;;;;;;;6.20;1.55;;;31.20;69.40;;;;;;5067832;28;20190;-88
2022/08/27 12:21:38;;;;;;;2.80;1.73;;;31.50;50.60;;;;;;5068804;28;20174;-92
2022/08/27 12:24:18;;;;;;;4.45;1.73;;;31.70;69.40;;;;;;5069193;28;20185;-94
2022/08/27 12:27:23;;;;;;;4.03;1.30;;;30.60;44.80;;;;;;5051547;28;20171;-93
2022/08/27 12:29:58;;;;;;;0.77;0.75;;;32.10;69.10;;;;;;5051974;28;20182;-95
2022/08/27 12:32:31;;;;;;;2.47;1.30;;;31.00;66.60;;;;;;5074165;28;20254;-91
2022/08/27 12:35:07;;;;;;;1.95;0.90;;;;;;;;;;5226078;22;20259;-95
2022/08/27 12:37:38;;;;;;;5.00;1.38;;;;;;;;;;5069548;28;20171;-93
2022/08/27 12:40:14;;;;;;;5.35;1.02;;;;;;;;;;5061259;28;20286;-94
2022/08/27 12:42:40;;;;;;;3.17;1.60;;;;;;;;;;5061300;28;20167;-95
2022/08/27 12:45:06;;;;;;;1.33;1.13;;;;;;;;;;5071111;28;20218;-93
2022/08/27 12:47:38;;;;;;;1.40;1.00;;;;;;;;;;5063551;28;20180;-95
2022/08/27 12:50:05;;;;;;;1.65;1.20;;;;;;;;;;5068836;28;20175;-93
2022/08/27 12:53:08;;;;;;;5.10;1.65;;;31.40;69.60;;;;;;5044418;28;20180;-92
2022/08/27 12:55:56;;;;;;;4.93;2.25;;;32.30;45.60;;;;;;5075366;28;20179;-95
2022/08/27 12:58:30;;;;;;;2.75;1.30;;;32.70;70.80;;;;;;5063451;28;20183;-96
2022/08/27 13:00:57;;;;;;;4.45;1.95;;;;;;;;;;5062884;28;20205;-92
2022/08/27 13:03:52;;;;;;;7.90;1.98;;;33.10;54.10;;;;;;5063230;28;20187;-93
2022/08/27 13:06:28;;;;;;;2.08;1.00;;;32.60;68.40;;;;;;5062332;28;20206;-94
2022/08/27 13:08:58;;;;;;;2.10;1.27;;;32.30;43.90;;;;;;5063141;28;20174;-92
2022/08/27 13:11:43;;;;;;;1.88;1.00;;;32.20;46.00;;;;;;5068505;28;20198;-91
2022/08/27 13:14:15;;;;;;;3.72;1.30;;;32.40;44.00;;;;;;5071408;28;20172;-93
2022/08/27 13:16:56;;;;;;;9.55;1.48;;;32.40;43.10;;;;;;5065697;28;20238;-90
2022/08/27 13:19:25;;;;;;;2.03;1.10;;;32.50;43.70;;;;;;5068417;28;20180;-93
2022/08/27 13:21:53;;;;;;;1.63;1.10;;;32.50;41.20;;;;;;5065886;28;20179;-95
2022/08/27 13:24:31;;;;;;;3.05;1.05;;;32.40;42.30;;;;;;5069355;28;20187;-88
2022/08/27 13:26:58;;;;;;;5.60;1.67;;;;;;;;;;5070783;28;20180;-88
2022/08/27 13:29:25;;;;;;;1.45;1.02;;;32.30;41.40;;;;;;5067423;28;20492;-95
2022/08/27 13:31:52;;;;;;;1.95;1.40;;;32.50;42.30;;;;;;5056907;28;20574;-91
2022/08/27 13:34:22;;;;;;;5.28;1.33;;;32.50;41.10;;;;;;5061400;28;20253;-95
2022/08/27 13:36:56;;;;;;;3.72;1.77;;;32.70;43.20;;;;;;5056816;28;20180;-93
2022/08/27 13:39:22;;;;;;;4.05;2.13;;;;;;;;;;5055932;28;20180;-93